Terminal Aerodrome Forecast
Issued by NWS

Home | Current Version | Previous Version | Graphics & Text | Print | Product List | Glossary On
Versions: 1 2 3 4 5 6 7 8 9 10 11 12 13 14 15 16 17
000
FTUS43 KIWX 232300
TAFSBN
TAF
KSBN 232330Z 2400/2424 12012KT 3SM RA BR OVC005
     FM240600 21013KT 5SM -RA BR OVC006
     FM241600 23020G35KT P6SM -RA OVC008
     FM242000 25022G37KT P6SM -SN OVC010=

USA.gov is the U.S. government's official web portal to all federal, state and local government web resources and services.